createdAt,value
2024-05-09T00:00:48.366Z,1.42
2024-05-09T00:03:34.610Z,1.67
2024-05-09T00:06:21.194Z,1.60
2024-05-09T00:09:07.530Z,1.48
2024-05-09T00:11:54.073Z,1.50
2024-05-09T00:14:41.116Z,1.60
2024-05-09T00:17:27.897Z,1.33
2024-05-09T00:20:20.470Z,1.80
2024-05-09T00:23:12.328Z,1.58
2024-05-09T00:26:00.037Z,1.77
2024-05-09T00:28:46.523Z,1.80
2024-05-09T00:31:32.931Z,1.50
2024-05-09T00:34:19.364Z,1.70
2024-05-09T00:37:06.082Z,1.70
2024-05-09T00:39:52.900Z,1.98
2024-05-09T00:42:39.661Z,1.75
2024-05-09T00:45:25.882Z,1.75
2024-05-09T00:48:15.266Z,1.65
2024-05-09T00:51:04.110Z,1.60
2024-05-09T00:53:50.402Z,1.85
2024-05-09T00:56:36.579Z,2.13
2024-05-09T00:59:23.893Z,1.98
2024-05-09T01:02:10.786Z,1.80
2024-05-09T01:04:57.500Z,3.05
2024-05-09T01:07:44.229Z,2.30
2024-05-09T01:10:34.805Z,2.00
2024-05-09T01:13:21.874Z,2.25
2024-05-09T01:16:08.051Z,2.05
2024-05-09T01:18:54.126Z,2.35
2024-05-09T01:21:41.715Z,2.17
2024-05-09T01:24:27.814Z,2.25
2024-05-09T01:27:13.847Z,2.40
2024-05-09T01:29:59.958Z,2.10
2024-05-09T01:32:46.410Z,2.30
2024-05-09T01:35:33.121Z,2.33
2024-05-09T01:38:20.128Z,2.20
2024-05-09T01:41:06.630Z,2.40
2024-05-09T01:43:53.301Z,2.40
2024-05-09T01:46:39.555Z,2.30
2024-05-09T01:49:25.748Z,2.67
2024-05-09T01:52:12.090Z,2.30
2024-05-09T01:54:58.374Z,2.50
2024-05-09T01:57:45.107Z,2.40
2024-05-09T02:00:39.235Z,2.90
2024-05-09T02:03:28.101Z,2.65
2024-05-09T02:06:14.607Z,2.78
2024-05-09T02:09:01.136Z,2.72
2024-05-09T02:11:47.903Z,2.67
2024-05-09T02:14:34.278Z,3.13
2024-05-09T02:17:20.952Z,2.30
2024-05-09T02:20:10.779Z,2.53
2024-05-09T02:22:59.948Z,3.10
2024-05-09T02:25:46.368Z,3.17
2024-05-09T02:28:32.545Z,2.90
2024-05-09T02:31:18.574Z,3.13
2024-05-09T02:34:04.794Z,3.20
2024-05-09T02:36:51.259Z,3.17
2024-05-09T02:39:37.192Z,3.75
2024-05-09T02:42:23.357Z,3.70
2024-05-09T02:45:09.607Z,3.85
2024-05-09T02:47:55.851Z,3.85
2024-05-09T02:50:44.397Z,4.65
2024-05-09T02:53:31.002Z,4.25
2024-05-09T02:56:17.398Z,4.00
2024-05-09T02:59:03.821Z,4.68
2024-05-09T03:01:50.021Z,4.80
2024-05-09T03:04:36.642Z,4.68
2024-05-09T03:07:23.095Z,5.03
2024-05-09T03:10:14.977Z,5.50
2024-05-09T03:13:09.381Z,5.22
2024-05-09T03:15:55.581Z,5.45
2024-05-09T03:18:41.481Z,5.72
2024-05-09T03:21:27.946Z,5.25
2024-05-09T03:24:14.056Z,5.75
2024-05-09T03:27:00.044Z,5.70
2024-05-09T03:29:46.159Z,5.85
2024-05-09T03:32:32.487Z,5.47
2024-05-09T03:35:18.941Z,5.75
2024-05-09T03:38:05.688Z,5.57
2024-05-09T03:40:52.505Z,5.43
2024-05-09T03:43:38.651Z,6.22
2024-05-09T03:46:25.179Z,5.93
2024-05-09T03:49:11.568Z,6.03
2024-05-09T03:51:58.081Z,6.05
2024-05-09T03:54:47.586Z,6.80
2024-05-09T03:57:33.725Z,6.53
2024-05-09T04:00:30.025Z,7.03
2024-05-09T04:03:21.584Z,5.85
2024-05-09T04:06:08.070Z,6.57
2024-05-09T04:08:55.111Z,6.10
2024-05-09T04:11:41.979Z,7.07
2024-05-09T04:14:28.528Z,6.95
2024-05-09T04:17:15.038Z,7.18
2024-05-09T04:20:01.626Z,6.38
2024-05-09T04:22:48.247Z,7.05
2024-05-09T04:25:34.834Z,7.85
2024-05-09T04:28:21.499Z,6.75
2024-05-09T04:31:08.012Z,5.82
2024-05-09T04:33:54.228Z,6.75
2024-05-09T04:36:43.966Z,6.38
2024-05-09T04:39:31.177Z,6.95
2024-05-09T04:42:17.030Z,7.13
2024-05-09T04:45:03.240Z,6.97
2024-05-09T04:47:49.612Z,6.40
2024-05-09T04:50:38.702Z,6.50
2024-05-09T04:53:25.950Z,6.45
2024-05-09T04:56:12.501Z,5.80
2024-05-09T04:58:59.205Z,6.32
2024-05-09T05:01:45.681Z,6.15
2024-05-09T05:04:32.735Z,5.70
2024-05-09T05:07:18.758Z,5.78
2024-05-09T05:10:05.943Z,6.20
2024-05-09T05:13:10.611Z,6.15
2024-05-09T05:15:57.850Z,5.70
2024-05-09T05:18:44.783Z,6.13
2024-05-09T05:21:31.239Z,6.10
2024-05-09T05:24:17.753Z,6.05
2024-05-09T05:27:03.802Z,5.22
2024-05-09T05:29:49.979Z,6.00
2024-05-09T05:32:36.607Z,5.40
2024-05-09T05:35:23.021Z,5.82
2024-05-09T05:38:10.528Z,5.28
2024-05-09T05:40:57.074Z,5.40
2024-05-09T05:43:43.569Z,5.72
2024-05-09T05:46:29.613Z,5.40
2024-05-09T05:49:15.999Z,5.30
2024-05-09T05:52:02.320Z,4.78
2024-05-09T05:54:49.426Z,4.68
2024-05-09T05:57:35.593Z,4.88
2024-05-09T06:00:29.398Z,4.20
2024-05-09T06:03:22.102Z,4.30
2024-05-09T06:06:08.578Z,4.10
2024-05-09T06:08:55.146Z,3.40
2024-05-09T06:11:42.659Z,3.45
2024-05-09T06:14:29.241Z,4.32
2024-05-09T06:17:15.730Z,3.08
2024-05-09T06:20:02.214Z,2.83
2024-05-09T06:22:48.740Z,3.03
2024-05-09T06:25:36.024Z,2.47
2024-05-09T06:28:22.291Z,2.42
2024-05-09T06:31:08.296Z,2.30
2024-05-09T06:33:54.531Z,2.40
2024-05-09T06:36:46.080Z,2.33
2024-05-09T06:39:32.732Z,2.13
2024-05-09T06:42:20.251Z,2.05
2024-05-09T06:45:06.871Z,2.67
2024-05-09T06:47:53.566Z,2.50
2024-05-09T06:50:40.456Z,3.00
2024-05-09T06:53:26.954Z,2.33
2024-05-09T06:56:14.394Z,2.60
2024-05-09T06:59:00.743Z,2.67
2024-05-09T07:01:47.259Z,2.42
2024-05-09T07:04:33.436Z,2.30
2024-05-09T07:07:19.929Z,2.00
2024-05-09T07:10:07.818Z,2.60
2024-05-09T07:12:56.396Z,3.08
2024-05-09T07:15:43.647Z,2.40
2024-05-09T07:18:31.802Z,2.00
2024-05-09T07:21:18.444Z,1.65
2024-05-09T07:24:05.312Z,1.45
2024-05-09T07:26:51.602Z,1.77
2024-05-09T07:29:38.665Z,2.25
2024-05-09T07:32:25.320Z,1.73
2024-05-09T07:35:11.738Z,0.98
2024-05-09T07:37:57.788Z,0.90
2024-05-09T07:40:44.326Z,1.00
2024-05-09T07:43:30.222Z,1.83
2024-05-09T07:47:14.226Z,1.45
2024-05-09T07:53:29.735Z,0.82
2024-05-09T07:55:20.031Z,1.08
2024-05-09T07:58:06.808Z,1.40
2024-05-09T08:00:54.410Z,1.00
2024-05-09T08:03:41.375Z,1.00
2024-05-09T08:06:28.137Z,0.95
2024-05-09T08:09:19.615Z,1.00
2024-05-09T08:12:09.499Z,1.00
2024-05-09T08:14:56.769Z,1.20
2024-05-09T08:17:43.082Z,0.90
2024-05-09T08:20:33.670Z,1.00
2024-05-09T08:23:23.806Z,0.88
2024-05-09T08:26:10.753Z,1.83
2024-05-09T08:28:56.747Z,0.95
2024-05-09T08:31:42.973Z,1.50
2024-05-09T08:34:29.593Z,1.00
2024-05-09T08:37:22.110Z,1.08
2024-05-09T08:40:23.480Z,1.02
2024-05-09T08:43:14.440Z,0.98
2024-05-09T08:46:02.521Z,1.70
2024-05-09T08:48:50.108Z,0.85
2024-05-09T08:51:41.572Z,0.95
2024-05-09T08:54:30.715Z,1.02
2024-05-09T08:57:17.334Z,1.42
2024-05-09T09:00:09.981Z,1.27
2024-05-09T09:03:00.291Z,0.70
2024-05-09T09:06:10.990Z,0.90
2024-05-09T09:08:57.446Z,0.73
2024-05-09T09:11:43.910Z,1.17
2024-05-09T09:14:30.409Z,0.95
2024-05-09T09:17:17.502Z,1.10
2024-05-09T09:20:04.475Z,0.90
2024-05-09T09:22:52.827Z,0.90
2024-05-09T09:25:42.487Z,1.02
2024-05-09T09:28:29.626Z,0.82
2024-05-09T09:31:19.868Z,1.17
2024-05-09T09:34:07.810Z,1.05
2024-05-09T09:37:07.009Z,0.75
2024-05-09T09:39:53.719Z,0.93
2024-05-09T09:42:41.179Z,0.90
2024-05-09T09:45:31.903Z,0.85
2024-05-09T09:48:20.057Z,0.82
2024-05-09T09:51:07.160Z,1.00
2024-05-09T09:53:53.557Z,0.82
2024-05-09T09:56:40.090Z,1.05
2024-05-09T09:59:26.198Z,0.90
2024-05-09T10:02:14.074Z,1.02
2024-05-09T10:05:00.839Z,0.77
2024-05-09T10:07:47.631Z,0.70
2024-05-09T10:10:35.183Z,0.90
2024-05-09T10:13:33.045Z,1.00
2024-05-09T10:16:23.254Z,1.10
2024-05-09T10:19:10.888Z,0.98
2024-05-09T10:22:04.275Z,1.20
2024-05-09T10:24:54.590Z,0.95
2024-05-09T10:27:40.919Z,0.88
2024-05-09T10:30:34.108Z,0.90
2024-05-09T10:33:22.713Z,2.97
2024-05-09T10:36:22.575Z,1.00
2024-05-09T10:39:09.031Z,1.10
2024-05-09T10:41:55.048Z,1.25
2024-05-09T10:44:42.699Z,0.93
2024-05-09T10:47:29.726Z,1.00
2024-05-09T10:50:22.590Z,0.93
2024-05-09T10:53:14.516Z,2.05
2024-05-09T10:56:01.759Z,0.90
2024-05-09T10:58:51.542Z,0.90
2024-05-09T11:01:37.583Z,0.90
2024-05-09T11:04:24.441Z,1.00
2024-05-09T11:07:13.652Z,0.90
2024-05-09T11:10:01.800Z,0.80
2024-05-09T11:12:48.137Z,0.80
2024-05-09T11:15:43.908Z,0.60
2024-05-09T11:18:35.257Z,0.75
2024-05-09T11:21:24.754Z,0.82
2024-05-09T11:24:11.956Z,1.08
2024-05-09T11:26:59.719Z,0.60
2024-05-09T11:29:47.541Z,0.70
2024-05-09T11:32:34.116Z,0.50
2024-05-09T11:35:21.173Z,0.68
2024-05-09T11:38:07.168Z,0.88
2024-05-09T11:40:53.459Z,0.80
2024-05-09T11:43:39.986Z,1.10
2024-05-09T11:46:26.491Z,0.80
2024-05-09T11:49:13.514Z,0.50
2024-05-09T11:51:59.990Z,0.73
2024-05-09T11:54:46.377Z,0.77
2024-05-09T11:57:33.206Z,0.70
2024-05-09T12:00:29.066Z,0.82
2024-05-09T12:03:25.504Z,0.80
2024-05-09T12:06:12.196Z,0.90
2024-05-09T12:08:58.728Z,0.90
2024-05-09T12:11:44.990Z,0.63
2024-05-09T12:14:30.824Z,0.75
2024-05-09T12:17:17.397Z,0.80
2024-05-09T12:20:07.088Z,0.65
2024-05-09T12:22:55.695Z,0.80
2024-05-09T12:25:42.541Z,0.43
2024-05-09T12:28:28.987Z,0.80
2024-05-09T12:31:15.575Z,0.70
2024-05-09T12:34:02.312Z,0.50
2024-05-09T12:36:48.904Z,0.70
2024-05-09T12:39:35.529Z,0.70
2024-05-09T12:42:27.278Z,0.60
2024-05-09T12:45:15.065Z,0.98
2024-05-09T12:48:01.726Z,0.73
2024-05-09T12:50:48.312Z,0.88
2024-05-09T12:53:36.417Z,0.80
2024-05-09T12:56:22.502Z,0.80
2024-05-09T12:59:08.496Z,0.70
2024-05-09T13:01:57.227Z,0.52
2024-05-09T13:04:45.627Z,0.70
2024-05-09T13:07:31.874Z,0.80
2024-05-09T13:10:28.617Z,0.80
2024-05-09T13:13:18.978Z,0.85
2024-05-09T13:16:05.933Z,0.82
2024-05-09T13:18:58.978Z,0.80
2024-05-09T13:21:47.229Z,0.75
2024-05-09T13:24:33.384Z,0.70
2024-05-09T13:27:21.150Z,0.70
2024-05-09T13:30:11.899Z,0.93
2024-05-09T13:33:01.056Z,0.60
2024-05-09T13:35:50.386Z,0.75
2024-05-09T13:38:37.544Z,0.70
2024-05-09T13:41:23.689Z,0.70
2024-05-09T13:44:10.032Z,0.50
2024-05-09T13:46:56.430Z,0.63
2024-05-09T13:49:43.259Z,1.02
2024-05-09T13:52:29.586Z,0.95
2024-05-09T13:55:16.359Z,0.70
2024-05-09T13:58:03.477Z,0.60
2024-05-09T14:00:49.964Z,0.80
2024-05-09T14:03:36.556Z,0.50
2024-05-09T14:06:23.055Z,1.00
2024-05-09T14:09:09.975Z,0.57
2024-05-09T14:11:56.408Z,0.80
2024-05-09T14:14:43.007Z,0.60
2024-05-09T14:17:29.110Z,0.70
2024-05-09T14:20:23.809Z,3.42
2024-05-09T14:23:17.986Z,0.70
2024-05-09T14:26:04.934Z,0.70
2024-05-09T14:28:51.116Z,0.70
2024-05-09T14:31:39.379Z,0.90
2024-05-09T14:34:26.131Z,0.80
2024-05-09T14:37:12.803Z,1.00
2024-05-09T14:39:59.698Z,0.80
2024-05-09T14:42:46.230Z,1.05
2024-05-09T14:45:32.855Z,1.02
2024-05-09T14:48:20.271Z,1.10
2024-05-09T14:51:06.457Z,1.00
2024-05-09T14:53:52.732Z,0.73
2024-05-09T14:56:39.154Z,1.13
2024-05-09T14:59:25.042Z,0.60
2024-05-09T15:02:11.812Z,1.73
2024-05-09T15:04:58.852Z,0.85
2024-05-09T15:07:45.576Z,0.80
2024-05-09T15:10:35.558Z,0.80
2024-05-09T15:13:24.727Z,1.33
2024-05-09T15:16:15.411Z,1.00
2024-05-09T15:19:11.856Z,0.90
2024-05-09T15:22:03.620Z,0.63
2024-05-09T15:24:50.094Z,1.20
2024-05-09T15:27:36.660Z,0.80
2024-05-09T15:30:30.237Z,0.80
2024-05-09T15:33:19.523Z,0.80
2024-05-09T15:36:06.241Z,1.08
2024-05-09T15:38:52.778Z,1.10
2024-05-09T15:41:39.262Z,1.05
2024-05-09T15:44:25.864Z,0.80
2024-05-09T15:47:11.842Z,0.80
2024-05-09T15:49:58.545Z,0.80
2024-05-09T15:52:45.157Z,0.73
2024-05-09T15:55:34.714Z,0.80
2024-05-09T15:58:22.089Z,0.90
2024-05-09T16:01:08.679Z,0.70
2024-05-09T16:03:55.302Z,0.77
2024-05-09T16:06:41.862Z,0.88
2024-05-09T16:09:28.428Z,1.00
2024-05-09T16:12:14.926Z,0.90
2024-05-09T16:15:01.176Z,0.75
2024-05-09T16:17:47.807Z,0.63
2024-05-09T16:20:40.045Z,0.85
2024-05-09T16:23:32.250Z,0.70
2024-05-09T16:26:19.007Z,0.80
2024-05-09T16:29:05.137Z,0.60
2024-05-09T16:31:51.715Z,0.70
2024-05-09T16:34:37.919Z,0.82
2024-05-09T16:37:28.192Z,0.80
2024-05-09T16:40:24.882Z,0.85
2024-05-09T16:43:19.860Z,0.80
2024-05-09T16:46:06.610Z,0.98
2024-05-09T16:48:53.077Z,0.80
2024-05-09T16:51:39.617Z,1.10
2024-05-09T16:54:26.225Z,0.90
2024-05-09T16:57:12.276Z,1.00
2024-05-09T16:59:58.443Z,0.90
2024-05-09T17:02:45.134Z,1.80
2024-05-09T17:05:32.091Z,1.73
2024-05-09T17:08:18.696Z,2.30
2024-05-09T17:11:05.652Z,2.15
2024-05-09T17:13:52.205Z,2.05
2024-05-09T17:16:38.357Z,1.63
2024-05-09T17:19:24.986Z,1.90
2024-05-09T17:22:11.724Z,1.30
2024-05-09T17:24:58.135Z,1.90
2024-05-09T17:27:44.727Z,1.50
2024-05-09T17:30:35.552Z,1.60
2024-05-09T17:33:24.447Z,2.20
2024-05-09T17:36:10.881Z,2.10
2024-05-09T17:38:57.010Z,2.28
2024-05-09T17:41:46.187Z,1.30
2024-05-09T17:44:32.718Z,1.10
2024-05-09T17:47:19.130Z,1.40
2024-05-09T17:50:11.735Z,1.30
2024-05-09T17:53:04.003Z,1.00
2024-05-09T17:55:56.372Z,1.77
2024-05-09T17:58:44.575Z,1.30
2024-05-09T18:01:32.067Z,1.20
2024-05-09T18:04:20.376Z,1.17
2024-05-09T18:07:08.082Z,1.45
2024-05-09T18:09:54.862Z,1.30
2024-05-09T18:12:41.587Z,1.20
2024-05-09T18:15:28.279Z,1.00
2024-05-09T18:18:14.985Z,1.20
2024-05-09T18:21:01.565Z,1.10
2024-05-09T18:23:47.638Z,1.00
2024-05-09T18:26:34.139Z,1.10
2024-05-09T18:29:22.286Z,1.25
2024-05-09T18:32:09.098Z,1.20
2024-05-09T18:34:55.600Z,1.08
2024-05-09T18:37:43.179Z,0.90
2024-05-09T18:40:34.418Z,1.13
2024-05-09T18:43:28.911Z,1.00
2024-05-09T18:46:21.614Z,1.00
2024-05-09T18:49:08.553Z,1.10
2024-05-09T18:51:54.859Z,0.88
2024-05-09T18:54:41.450Z,0.95
2024-05-09T18:57:28.686Z,0.98
2024-05-09T19:00:26.660Z,0.93
2024-05-09T19:03:20.245Z,1.17
2024-05-09T19:06:07.279Z,0.90
2024-05-09T19:08:53.785Z,1.00
2024-05-09T19:11:40.242Z,1.00
2024-05-09T19:14:26.512Z,0.90
2024-05-09T19:17:12.550Z,1.02
2024-05-09T19:19:58.705Z,1.20
2024-05-09T19:22:45.307Z,0.90
2024-05-09T19:25:32.499Z,1.05
2024-05-09T19:28:20.867Z,0.80
2024-05-09T19:31:07.338Z,0.90
2024-05-09T19:33:53.594Z,0.80
2024-05-09T19:36:40.286Z,0.73
2024-05-09T19:39:26.977Z,0.90
2024-05-09T19:42:13.567Z,0.70
2024-05-09T19:45:00.127Z,0.93
2024-05-09T19:47:47.176Z,0.70
2024-05-09T19:50:40.994Z,0.98
2024-05-09T19:53:30.885Z,0.95
2024-05-09T19:56:17.379Z,0.88
2024-05-09T19:59:04.407Z,0.88
2024-05-09T20:01:50.652Z,1.08
2024-05-09T20:04:37.445Z,1.08
2024-05-09T20:07:23.946Z,0.88
2024-05-09T20:10:16.725Z,1.92
2024-05-09T20:13:09.647Z,0.70
2024-05-09T20:15:56.334Z,0.90
2024-05-09T20:18:43.032Z,0.80
2024-05-09T20:21:30.783Z,1.35
2024-05-09T20:24:17.418Z,0.93
2024-05-09T20:27:04.259Z,1.00
2024-05-09T20:29:50.765Z,0.77
2024-05-09T20:32:37.464Z,0.98
2024-05-09T20:35:24.026Z,1.20
2024-05-09T20:38:10.272Z,1.00
2024-05-09T20:40:56.915Z,0.88
2024-05-09T20:43:44.947Z,0.90
2024-05-09T20:46:31.133Z,0.73
2024-05-09T20:49:18.327Z,0.88
2024-05-09T20:52:05.215Z,0.90
2024-05-09T20:54:51.578Z,1.00
2024-05-09T20:57:38.266Z,0.88
2024-05-09T21:00:35.118Z,0.88
2024-05-09T21:03:26.216Z,0.93
2024-05-09T21:06:12.982Z,0.85
2024-05-09T21:08:59.352Z,1.20
2024-05-09T21:11:46.061Z,1.00
2024-05-09T21:14:32.742Z,1.05
2024-05-09T21:17:18.748Z,1.10
2024-05-09T21:20:11.410Z,1.10
2024-05-09T21:23:01.876Z,0.80
2024-05-09T21:25:48.882Z,1.00
2024-05-09T21:28:35.133Z,0.98
2024-05-09T21:31:21.663Z,1.05
2024-05-09T21:34:08.185Z,1.00
2024-05-09T21:36:55.417Z,1.00
2024-05-09T21:39:41.822Z,0.82
2024-05-09T21:42:28.331Z,1.00
2024-05-09T21:45:15.016Z,0.98
2024-05-09T21:48:03.673Z,1.02
2024-05-09T21:50:49.911Z,0.90
2024-05-09T21:53:37.806Z,0.85
2024-05-09T21:56:25.313Z,0.80
2024-05-09T21:59:11.438Z,0.80
2024-05-09T22:01:58.929Z,0.85
2024-05-09T22:04:45.388Z,0.70
2024-05-09T22:07:31.865Z,0.80
2024-05-09T22:10:25.674Z,0.70
2024-05-09T22:13:18.822Z,0.73
2024-05-09T22:16:05.449Z,0.70
2024-05-09T22:18:51.959Z,0.88
2024-05-09T22:21:38.463Z,0.70
2024-05-09T22:24:25.092Z,0.90
2024-05-09T22:27:12.032Z,0.70
2024-05-09T22:29:58.314Z,0.60
2024-05-09T22:32:44.279Z,0.95
2024-05-09T22:35:30.811Z,0.90
2024-05-09T22:38:16.888Z,0.70
2024-05-09T22:41:07.176Z,0.68
2024-05-09T22:43:53.650Z,0.80
2024-05-09T22:46:39.872Z,0.80
2024-05-09T22:49:25.969Z,0.80
2024-05-09T22:52:12.495Z,0.73
2024-05-09T22:54:59.248Z,0.80
2024-05-09T22:57:45.509Z,0.80
2024-05-09T23:00:33.314Z,1.10
2024-05-09T23:03:21.815Z,0.98
2024-05-09T23:06:08.765Z,1.20
2024-05-09T23:08:54.964Z,0.98
2024-05-09T23:11:42.099Z,0.70
2024-05-09T23:14:28.199Z,0.93
2024-05-09T23:17:14.265Z,0.90
2024-05-09T23:20:00.932Z,0.93
2024-05-09T23:22:47.695Z,0.93
2024-05-09T23:25:34.546Z,1.10
2024-05-09T23:28:20.815Z,1.45
2024-05-09T23:31:07.241Z,1.02
2024-05-09T23:33:55.290Z,0.80
2024-05-09T23:36:42.413Z,1.00
2024-05-09T23:39:28.780Z,1.13
2024-05-09T23:42:14.847Z,1.00
2024-05-09T23:45:01.051Z,1.00
2024-05-09T23:47:47.502Z,1.00
2024-05-09T23:50:36.911Z,0.70
2024-05-09T23:53:24.983Z,0.90
2024-05-09T23:56:16.845Z,1.00
2024-05-09T23:59:02.885Z,1.00
